sensor_id;sensor_type;location;lat;lon;timestamp;pressure;altitude;pressure_sealevel;temperature;humidity
31239;BME280;17871;31.584;74.450;2023-03-16T00:00:36;98276.72;;;22.49;60.53
31239;BME280;17871;31.584;74.450;2023-03-16T00:03:06;98275.19;;;22.43;60.70
31239;BME280;17871;31.584;74.450;2023-03-16T00:05:36;98287.06;;;22.50;60.40
31239;BME280;17871;31.584;74.450;2023-03-16T00:08:06;98281.97;;;22.47;60.39
31239;BME280;17871;31.584;74.450;2023-03-16T00:10:35;98292.78;;;22.58;60.47
31239;BME280;17871;31.584;74.450;2023-03-16T00:13:05;98292.00;;;22.56;60.67
31239;BME280;17871;31.584;74.450;2023-03-16T00:15:35;98295.66;;;22.52;61.01
31239;BME280;17871;31.584;74.450;2023-03-16T00:18:04;98301.78;;;22.51;61.09
31239;BME280;17871;31.584;74.450;2023-03-16T00:20:35;98294.50;;;22.39;61.70
31239;BME280;17871;31.584;74.450;2023-03-16T00:23:04;98298.50;;;22.26;62.12
31239;BME280;17871;31.584;74.450;2023-03-16T00:25:34;98305.59;;;22.22;62.09
31239;BME280;17871;31.584;74.450;2023-03-16T00:28:04;98298.75;;;22.20;62.17
31239;BME280;17871;31.584;74.450;2023-03-16T00:30:34;98307.34;;;22.22;62.11
31239;BME280;17871;31.584;74.450;2023-03-16T00:33:05;98315.59;;;22.11;62.63
31239;BME280;17871;31.584;74.450;2023-03-16T00:35:35;98323.22;;;22.16;62.23
31239;BME280;17871;31.584;74.450;2023-03-16T00:38:04;98317.28;;;22.12;62.53
31239;BME280;17871;31.584;74.450;2023-03-16T00:40:34;98326.31;;;22.04;63.08
31239;BME280;17871;31.584;74.450;2023-03-16T00:43:04;98321.19;;;22.02;62.95
31239;BME280;17871;31.584;74.450;2023-03-16T00:45:34;98320.44;;;21.99;63.10
31239;BME280;17871;31.584;74.450;2023-03-16T00:48:05;98327.31;;;22.00;63.13
31239;BME280;17871;31.584;74.450;2023-03-16T00:50:36;98322.25;;;21.97;63.14
31239;BME280;17871;31.584;74.450;2023-03-16T00:53:06;98326.72;;;21.93;63.39
31239;BME280;17871;31.584;74.450;2023-03-16T00:55:35;98325.66;;;21.99;63.33
31239;BME280;17871;31.584;74.450;2023-03-16T00:58:05;98327.56;;;21.94;63.77
31239;BME280;17871;31.584;74.450;2023-03-16T01:00:37;98330.97;;;21.96;64.20
31239;BME280;17871;31.584;74.450;2023-03-16T01:03:13;98327.41;;;21.98;63.61
31239;BME280;17871;31.584;74.450;2023-03-16T01:05:46;98330.19;;;21.94;63.81
31239;BME280;17871;31.584;74.450;2023-03-16T01:08:22;98330.84;;;21.99;64.00
31239;BME280;17871;31.584;74.450;2023-03-16T01:10:56;98337.84;;;21.97;64.62
31239;BME280;17871;31.584;74.450;2023-03-16T01:13:36;98339.72;;;21.93;64.28
31239;BME280;17871;31.584;74.450;2023-03-16T01:16:11;98333.22;;;21.82;64.72
31239;BME280;17871;31.584;74.450;2023-03-16T01:18:41;98336.00;;;21.77;65.18
31239;BME280;17871;31.584;74.450;2023-03-16T01:21:11;98343.19;;;21.70;65.22
31239;BME280;17871;31.584;74.450;2023-03-16T01:23:44;98353.41;;;21.77;64.73
31239;BME280;17871;31.584;74.450;2023-03-16T01:26:15;98345.59;;;21.77;64.54
31239;BME280;17871;31.584;74.450;2023-03-16T01:28:47;98349.13;;;21.74;64.45
31239;BME280;17871;31.584;74.450;2023-03-16T01:31:18;98359.38;;;21.79;64.70
31239;BME280;17871;31.584;74.450;2023-03-16T01:33:49;98370.00;;;21.72;65.02
31239;BME280;17871;31.584;74.450;2023-03-16T01:36:23;98376.59;;;21.59;65.85
31239;BME280;17871;31.584;74.450;2023-03-16T01:39:00;98376.06;;;21.73;65.55
31239;BME280;17871;31.584;74.450;2023-03-16T01:41:36;98376.22;;;21.68;65.76
31239;BME280;17871;31.584;74.450;2023-03-16T01:44:13;98382.22;;;21.70;65.83
31239;BME280;17871;31.584;74.450;2023-03-16T01:46:44;98395.22;;;21.70;66.09
31239;BME280;17871;31.584;74.450;2023-03-16T01:49:23;98390.81;;;21.72;66.53
31239;BME280;17871;31.584;74.450;2023-03-16T01:52:00;98403.94;;;21.69;66.34
31239;BME280;17871;31.584;74.450;2023-03-16T01:54:36;98407.78;;;21.36;67.19
31239;BME280;17871;31.584;74.450;2023-03-16T01:57:20;98410.00;;;21.47;67.32
31239;BME280;17871;31.584;74.450;2023-03-16T02:00:04;98409.28;;;21.66;66.59
31239;BME280;17871;31.584;74.450;2023-03-16T02:03:14;98406.66;;;21.66;67.33
31239;BME280;17871;31.584;74.450;2023-03-16T02:08:31;98423.31;;;21.61;66.56
31239;BME280;17871;31.584;74.450;2023-03-16T02:11:03;98415.25;;;21.68;66.13
31239;BME280;17871;31.584;74.450;2023-03-16T02:13:48;98425.28;;;21.54;66.45
31239;BME280;17871;31.584;74.450;2023-03-16T02:16:20;98434.03;;;21.53;66.70
31239;BME280;17871;31.584;74.450;2023-03-16T02:18:51;98430.13;;;21.65;66.20
31239;BME280;17871;31.584;74.450;2023-03-16T02:21:30;98426.44;;;21.70;66.48
31239;BME280;17871;31.584;74.450;2023-03-16T02:24:04;98428.91;;;21.73;66.39
31239;BME280;17871;31.584;74.450;2023-03-16T02:31:58;98448.44;;;21.62;66.50
31239;BME280;17871;31.584;74.450;2023-03-16T02:34:31;98449.66;;;21.77;66.09
31239;BME280;17871;31.584;74.450;2023-03-16T02:37:02;98452.53;;;21.92;65.79
31239;BME280;17871;31.584;74.450;2023-03-16T02:39:33;98454.72;;;21.80;65.40
31239;BME280;17871;31.584;74.450;2023-03-16T02:42:04;98455.47;;;21.83;65.68
31239;BME280;17871;31.584;74.450;2023-03-16T02:44:36;98454.28;;;21.92;65.59
31239;BME280;17871;31.584;74.450;2023-03-16T02:47:32;98462.59;;;22.01;64.80
31239;BME280;17871;31.584;74.450;2023-03-16T02:50:04;98465.03;;;22.06;64.26
31239;BME280;17871;31.584;74.450;2023-03-16T02:52:36;98463.56;;;22.22;64.62
31239;BME280;17871;31.584;74.450;2023-03-16T02:55:07;98470.97;;;22.33;64.67
31239;BME280;17871;31.584;74.450;2023-03-16T02:57:38;98466.56;;;22.33;64.66
31239;BME280;17871;31.584;74.450;2023-03-16T03:00:13;98478.16;;;22.48;64.65
31239;BME280;17871;31.584;74.450;2023-03-16T03:02:50;98475.47;;;22.49;64.31
31239;BME280;17871;31.584;74.450;2023-03-16T03:05:21;98489.19;;;22.76;63.93
31239;BME280;17871;31.584;74.450;2023-03-16T03:07:50;98496.66;;;22.85;63.49
31239;BME280;17871;31.584;74.450;2023-03-16T03:10:20;98498.81;;;22.96;63.16
31239;BME280;17871;31.584;74.450;2023-03-16T03:12:50;98500.25;;;23.03;63.24
31239;BME280;17871;31.584;74.450;2023-03-16T03:15:20;98506.53;;;23.19;61.73
31239;BME280;17871;31.584;74.450;2023-03-16T03:18:10;98508.44;;;23.36;61.23
31239;BME280;17871;31.584;74.450;2023-03-16T03:20:40;98508.06;;;23.45;61.13
31239;BME280;17871;31.584;74.450;2023-03-16T03:23:10;98502.38;;;23.55;60.39
31239;BME280;17871;31.584;74.450;2023-03-16T03:25:40;98507.00;;;23.69;59.98
31239;BME280;17871;31.584;74.450;2023-03-16T03:28:11;98514.22;;;23.83;59.57
31239;BME280;17871;31.584;74.450;2023-03-16T03:30:43;98497.81;;;23.99;58.90
31239;BME280;17871;31.584;74.450;2023-03-16T03:33:13;98505.22;;;24.08;59.33
31239;BME280;17871;31.584;74.450;2023-03-16T03:35:43;98506.09;;;24.27;59.67
31239;BME280;17871;31.584;74.450;2023-03-16T03:38:13;98500.88;;;24.27;58.67
31239;BME280;17871;31.584;74.450;2023-03-16T03:40:44;98502.78;;;24.24;58.70
31239;BME280;17871;31.584;74.450;2023-03-16T03:43:17;98502.84;;;24.41;58.61
31239;BME280;17871;31.584;74.450;2023-03-16T03:45:55;98501.19;;;24.40;59.03
31239;BME280;17871;31.584;74.450;2023-03-16T03:48:26;98504.91;;;24.53;58.64
31239;BME280;17871;31.584;74.450;2023-03-16T03:50:57;98506.63;;;24.71;58.24
31239;BME280;17871;31.584;74.450;2023-03-16T03:53:53;98515.16;;;24.94;58.74
31239;BME280;17871;31.584;74.450;2023-03-16T03:56:41;98504.84;;;24.91;57.93
31239;BME280;17871;31.584;74.450;2023-03-16T03:59:14;98508.94;;;25.13;57.83
31239;BME280;17871;31.584;74.450;2023-03-16T04:02:07;98519.34;;;25.32;57.07
31239;BME280;17871;31.584;74.450;2023-03-16T04:04:47;98521.03;;;25.33;57.05
31239;BME280;17871;31.584;74.450;2023-03-16T04:07:17;98516.72;;;25.49;57.64
31239;BME280;17871;31.584;74.450;2023-03-16T04:09:49;98520.16;;;25.51;56.68
31239;BME280;17871;31.584;74.450;2023-03-16T04:12:28;98527.56;;;25.59;56.70
31239;BME280;17871;31.584;74.450;2023-03-16T04:14:58;98524.09;;;25.75;57.45
31239;BME280;17871;31.584;74.450;2023-03-16T04:17:34;98524.25;;;25.72;57.20
31239;BME280;17871;31.584;74.450;2023-03-16T04:20:09;98529.31;;;25.75;57.25
31239;BME280;17871;31.584;74.450;2023-03-16T04:22:45;98527.41;;;25.79;57.67
31239;BME280;17871;31.584;74.450;2023-03-16T04:25:17;98524.31;;;25.88;57.33
31239;BME280;17871;31.584;74.450;2023-03-16T04:27:48;98523.34;;;26.06;56.96
31239;BME280;17871;31.584;74.450;2023-03-16T04:30:22;98526.28;;;26.17;56.45
31239;BME280;17871;31.584;74.450;2023-03-16T04:32:59;98517.16;;;26.40;56.51
31239;BME280;17871;31.584;74.450;2023-03-16T04:35:30;98524.25;;;26.38;57.13
31239;BME280;17871;31.584;74.450;2023-03-16T04:38:00;98520.53;;;26.58;56.51
31239;BME280;17871;31.584;74.450;2023-03-16T04:40:39;98519.19;;;26.66;55.50
31239;BME280;17871;31.584;74.450;2023-03-16T04:43:14;98518.84;;;26.72;55.39
31239;BME280;17871;31.584;74.450;2023-03-16T04:45:46;98528.41;;;26.89;53.24
31239;BME280;17871;31.584;74.450;2023-03-16T04:48:17;98529.75;;;26.96;54.23
31239;BME280;17871;31.584;74.450;2023-03-16T04:50:47;98535.03;;;27.10;53.96
31239;BME280;17871;31.584;74.450;2023-03-16T04:53:19;98535.59;;;27.31;52.95
31239;BME280;17871;31.584;74.450;2023-03-16T04:55:56;98541.06;;;27.42;52.71
31239;BME280;17871;31.584;74.450;2023-03-16T04:58:25;98540.28;;;27.56;53.15
31239;BME280;17871;31.584;74.450;2023-03-16T05:00:57;98540.00;;;27.60;52.51
31239;BME280;17871;31.584;74.450;2023-03-16T05:03:29;98539.75;;;27.93;53.26
31239;BME280;17871;31.584;74.450;2023-03-16T05:05:59;98542.50;;;27.92;51.13
31239;BME280;17871;31.584;74.450;2023-03-16T05:08:32;98549.34;;;27.94;50.74
31239;BME280;17871;31.584;74.450;2023-03-16T05:11:02;98548.34;;;28.11;50.38
31239;BME280;17871;31.584;74.450;2023-03-16T05:13:37;98548.72;;;28.19;49.56
31239;BME280;17871;31.584;74.450;2023-03-16T05:16:07;98549.81;;;28.29;48.24
31239;BME280;17871;31.584;74.450;2023-03-16T05:18:39;98547.19;;;28.43;47.76
31239;BME280;17871;31.584;74.450;2023-03-16T05:21:10;98542.69;;;28.45;48.47
31239;BME280;17871;31.584;74.450;2023-03-16T05:23:51;98542.84;;;28.56;48.84
31239;BME280;17871;31.584;74.450;2023-03-16T05:26:21;98547.81;;;28.61;46.90
31239;BME280;17871;31.584;74.450;2023-03-16T05:28:54;98544.34;;;28.74;46.40
31239;BME280;17871;31.584;74.450;2023-03-16T05:31:29;98550.91;;;28.81;48.38
31239;BME280;17871;31.584;74.450;2023-03-16T05:34:04;98551.25;;;28.90;45.73
31239;BME280;17871;31.584;74.450;2023-03-16T05:36:34;98549.16;;;28.95;46.70
31239;BME280;17871;31.584;74.450;2023-03-16T05:39:11;98554.91;;;29.14;46.64
31239;BME280;17871;31.584;74.450;2023-03-16T05:41:45;98554.31;;;29.23;46.09
31239;BME280;17871;31.584;74.450;2023-03-16T05:44:16;98555.41;;;29.33;46.50
31239;BME280;17871;31.584;74.450;2023-03-16T05:47:12;98556.28;;;29.46;46.68
31239;BME280;17871;31.584;74.450;2023-03-16T05:49:46;98556.09;;;29.49;47.25
31239;BME280;17871;31.584;74.450;2023-03-16T05:52:30;98557.66;;;29.52;46.45
31239;BME280;17871;31.584;74.450;2023-03-16T05:55:08;98549.31;;;29.45;47.70
31239;BME280;17871;31.584;74.450;2023-03-16T05:57:38;98544.41;;;29.66;47.80
31239;BME280;17871;31.584;74.450;2023-03-16T06:00:11;98551.38;;;29.79;49.21
31239;BME280;17871;31.584;74.450;2023-03-16T06:02:54;98538.00;;;29.82;50.53
31239;BME280;17871;31.584;74.450;2023-03-16T06:05:29;98540.72;;;29.81;47.90
31239;BME280;17871;31.584;74.450;2023-03-16T06:08:00;98538.09;;;29.81;47.53
31239;BME280;17871;31.584;74.450;2023-03-16T06:10:31;98546.63;;;29.72;47.22
31239;BME280;17871;31.584;74.450;2023-03-16T06:13:02;98538.88;;;29.96;47.28
31239;BME280;17871;31.584;74.450;2023-03-16T06:15:33;98529.78;;;30.12;47.29
31239;BME280;17871;31.584;74.450;2023-03-16T06:18:04;98533.13;;;30.27;46.95
31239;BME280;17871;31.584;74.450;2023-03-16T06:20:34;98530.69;;;30.24;46.38
31239;BME280;17871;31.584;74.450;2023-03-16T06:23:05;98520.78;;;30.27;45.73
31239;BME280;17871;31.584;74.450;2023-03-16T06:25:36;98523.09;;;30.45;45.36
31239;BME280;17871;31.584;74.450;2023-03-16T06:28:09;98522.13;;;30.58;45.25
31239;BME280;17871;31.584;74.450;2023-03-16T06:30:40;98518.47;;;30.72;46.22
31239;BME280;17871;31.584;74.450;2023-03-16T06:33:10;98516.09;;;30.80;46.25
31239;BME280;17871;31.584;74.450;2023-03-16T06:35:41;98517.22;;;30.65;45.80
31239;BME280;17871;31.584;74.450;2023-03-16T06:38:19;98516.16;;;30.67;45.98
31239;BME280;17871;31.584;74.450;2023-03-16T06:41:03;98510.16;;;30.65;45.60
31239;BME280;17871;31.584;74.450;2023-03-16T06:43:35;98509.81;;;30.70;45.24
31239;BME280;17871;31.584;74.450;2023-03-16T06:46:07;98508.88;;;30.95;44.83
31239;BME280;17871;31.584;74.450;2023-03-16T06:48:37;98498.63;;;30.90;44.96
31239;BME280;17871;31.584;74.450;2023-03-16T06:51:08;98500.19;;;31.05;43.64
31239;BME280;17871;31.584;74.450;2023-03-16T06:53:39;98491.44;;;31.16;44.22
31239;BME280;17871;31.584;74.450;2023-03-16T06:56:10;98493.91;;;31.30;43.72
31239;BME280;17871;31.584;74.450;2023-03-16T06:58:43;98489.00;;;31.36;43.18
31239;BME280;17871;31.584;74.450;2023-03-16T07:01:14;98491.59;;;31.60;43.09
31239;BME280;17871;31.584;74.450;2023-03-16T07:03:45;98486.56;;;31.57;42.81
31239;BME280;17871;31.584;74.450;2023-03-16T07:06:25;98484.94;;;31.44;40.38
31239;BME280;17871;31.584;74.450;2023-03-16T07:08:56;98478.81;;;31.43;39.82
31239;BME280;17871;31.584;74.450;2023-03-16T07:11:28;98471.69;;;31.67;42.19
31239;BME280;17871;31.584;74.450;2023-03-16T07:13:58;98466.63;;;31.86;42.15
31239;BME280;17871;31.584;74.450;2023-03-16T07:16:30;98461.00;;;31.80;42.00
31239;BME280;17871;31.584;74.450;2023-03-16T07:19:03;98456.31;;;31.83;42.32
31239;BME280;17871;31.584;74.450;2023-03-16T07:21:33;98457.75;;;31.87;41.24
31239;BME280;17871;31.584;74.450;2023-03-16T07:24:14;98448.25;;;31.85;42.12
31239;BME280;17871;31.584;74.450;2023-03-16T07:26:44;98445.25;;;31.89;42.00
31239;BME280;17871;31.584;74.450;2023-03-16T07:29:23;98441.16;;;31.85;42.11
31239;BME280;17871;31.584;74.450;2023-03-16T07:31:54;98435.63;;;32.00;41.55
31239;BME280;17871;31.584;74.450;2023-03-16T07:34:30;98441.16;;;31.97;39.21
31239;BME280;17871;31.584;74.450;2023-03-16T07:36:59;98434.91;;;31.98;39.46
31239;BME280;17871;31.584;74.450;2023-03-16T07:39:31;98433.69;;;32.02;40.57
31239;BME280;17871;31.584;74.450;2023-03-16T07:42:07;98432.16;;;32.10;41.39
31239;BME280;17871;31.584;74.450;2023-03-16T07:44:52;98430.81;;;32.27;40.39
31239;BME280;17871;31.584;74.450;2023-03-16T07:47:22;98425.63;;;32.25;40.42
31239;BME280;17871;31.584;74.450;2023-03-16T07:49:58;98419.09;;;32.40;39.96
31239;BME280;17871;31.584;74.450;2023-03-16T07:52:27;98415.75;;;32.27;38.44
31239;BME280;17871;31.584;74.450;2023-03-16T07:54:56;98411.69;;;32.23;38.41
31239;BME280;17871;31.584;74.450;2023-03-16T07:57:25;98412.72;;;32.43;37.88
31239;BME280;17871;31.584;74.450;2023-03-16T07:59:54;98402.22;;;32.53;38.52
31239;BME280;17871;31.584;74.450;2023-03-16T08:02:25;98394.78;;;32.58;38.61
31239;BME280;17871;31.584;74.450;2023-03-16T08:04:54;98391.13;;;32.27;38.16
31239;BME280;17871;31.584;74.450;2023-03-16T08:07:23;98383.16;;;32.38;38.31
31239;BME280;17871;31.584;74.450;2023-03-16T08:09:59;98380.50;;;32.38;39.41
31239;BME280;17871;31.584;74.450;2023-03-16T08:12:38;98371.56;;;32.50;38.87
31239;BME280;17871;31.584;74.450;2023-03-16T08:15:09;98369.88;;;32.60;39.21
31239;BME280;17871;31.584;74.450;2023-03-16T08:17:38;98359.03;;;32.63;35.92
31239;BME280;17871;31.584;74.450;2023-03-16T08:20:14;98360.13;;;32.81;35.99
31239;BME280;17871;31.584;74.450;2023-03-16T08:22:45;98357.03;;;32.97;38.29
31239;BME280;17871;31.584;74.450;2023-03-16T08:25:16;98352.13;;;32.93;37.90
31239;BME280;17871;31.584;74.450;2023-03-16T08:27:57;98351.16;;;32.94;38.20
31239;BME280;17871;31.584;74.450;2023-03-16T08:30:27;98349.06;;;32.97;36.42
31239;BME280;17871;31.584;74.450;2023-03-16T08:33:12;98345.53;;;33.08;36.70
31239;BME280;17871;31.584;74.450;2023-03-16T08:35:42;98341.53;;;33.13;36.05
31239;BME280;17871;31.584;74.450;2023-03-16T08:38:13;98333.00;;;33.10;37.06
31239;BME280;17871;31.584;74.450;2023-03-16T08:40:43;98337.22;;;33.12;36.05
31239;BME280;17871;31.584;74.450;2023-03-16T08:43:18;98338.22;;;33.00;36.15
31239;BME280;17871;31.584;74.450;2023-03-16T08:45:48;98324.66;;;32.94;37.38
31239;BME280;17871;31.584;74.450;2023-03-16T08:48:21;98326.28;;;33.06;36.27
31239;BME280;17871;31.584;74.450;2023-03-16T08:50:53;98321.97;;;32.84;36.65
31239;BME280;17871;31.584;74.450;2023-03-16T08:53:23;98314.47;;;32.68;35.33
31239;BME280;17871;31.584;74.450;2023-03-16T08:55:52;98308.59;;;32.85;36.00
31239;BME280;17871;31.584;74.450;2023-03-16T09:01:17;98298.91;;;32.96;35.87
31239;BME280;17871;31.584;74.450;2023-03-16T09:03:47;98294.59;;;32.74;36.96
31239;BME280;17871;31.584;74.450;2023-03-16T09:06:16;98292.94;;;32.73;36.29
31239;BME280;17871;31.584;74.450;2023-03-16T09:08:45;98295.16;;;32.77;35.51
31239;BME280;17871;31.584;74.450;2023-03-16T09:11:17;98289.03;;;32.77;36.50
31239;BME280;17871;31.584;74.450;2023-03-16T09:13:47;98284.31;;;32.80;38.13
31239;BME280;17871;31.584;74.450;2023-03-16T09:16:19;98287.06;;;32.69;38.16
31239;BME280;17871;31.584;74.450;2023-03-16T09:18:48;98282.50;;;32.81;37.44
31239;BME280;17871;31.584;74.450;2023-03-16T09:21:18;98280.84;;;32.59;38.04
31239;BME280;17871;31.584;74.450;2023-03-16T09:23:47;98266.06;;;32.57;36.88
31239;BME280;17871;31.584;74.450;2023-03-16T09:26:16;98263.03;;;32.61;38.42
31239;BME280;17871;31.584;74.450;2023-03-16T09:28:45;98268.97;;;32.54;40.27
31239;BME280;17871;31.584;74.450;2023-03-16T09:31:19;98263.50;;;32.55;38.95
31239;BME280;17871;31.584;74.450;2023-03-16T09:33:48;98271.59;;;32.33;38.16
31239;BME280;17871;31.584;74.450;2023-03-16T09:36:17;98259.28;;;32.43;37.69
31239;BME280;17871;31.584;74.450;2023-03-16T09:38:46;98263.78;;;32.52;37.67
31239;BME280;17871;31.584;74.450;2023-03-16T09:41:41;98263.56;;;32.44;37.46
31239;BME280;17871;31.584;74.450;2023-03-16T09:44:45;98247.41;;;32.58;38.39
31239;BME280;17871;31.584;74.450;2023-03-16T09:47:28;98256.22;;;32.48;38.81
31239;BME280;17871;31.584;74.450;2023-03-16T09:50:04;98244.03;;;32.56;39.02
31239;BME280;17871;31.584;74.450;2023-03-16T09:52:42;98245.13;;;32.54;38.13
31239;BME280;17871;31.584;74.450;2023-03-16T09:55:47;98245.00;;;32.55;36.94
31239;BME280;17871;31.584;74.450;2023-03-16T09:58:20;98240.34;;;32.48;37.51
31239;BME280;17871;31.584;74.450;2023-03-16T10:06:28;98243.59;;;32.30;39.30
31239;BME280;17871;31.584;74.450;2023-03-16T10:09:13;98249.44;;;32.34;40.01
31239;BME280;17871;31.584;74.450;2023-03-16T10:11:52;98243.88;;;32.16;39.87
31239;BME280;17871;31.584;74.450;2023-03-16T10:14:29;98243.00;;;32.27;40.04
31239;BME280;17871;31.584;74.450;2023-03-16T10:20:01;98244.91;;;32.25;38.89
31239;BME280;17871;31.584;74.450;2023-03-16T10:22:36;98238.94;;;32.23;40.83
31239;BME280;17871;31.584;74.450;2023-03-16T10:28:02;98224.31;;;32.08;41.58
31239;BME280;17871;31.584;74.450;2023-03-16T10:30:34;98231.56;;;32.06;42.90
31239;BME280;17871;31.584;74.450;2023-03-16T10:33:04;98223.94;;;32.12;41.66
31239;BME280;17871;31.584;74.450;2023-03-16T10:38:27;98228.44;;;32.01;39.58
31239;BME280;17871;31.584;74.450;2023-03-16T10:40:58;98217.38;;;31.96;37.69
31239;BME280;17871;31.584;74.450;2023-03-16T10:43:28;98227.00;;;31.97;37.34
31239;BME280;17871;31.584;74.450;2023-03-16T10:45:59;98222.13;;;31.81;38.03
31239;BME280;17871;31.584;74.450;2023-03-16T10:48:31;98218.84;;;31.88;37.34
31239;BME280;17871;31.584;74.450;2023-03-16T10:51:12;98222.81;;;31.94;38.41
31239;BME280;17871;31.584;74.450;2023-03-16T10:53:43;98217.88;;;31.89;41.46
31239;BME280;17871;31.584;74.450;2023-03-16T10:56:21;98214.53;;;31.87;41.00
31239;BME280;17871;31.584;74.450;2023-03-16T10:58:50;98214.34;;;31.68;41.18
31239;BME280;17871;31.584;74.450;2023-03-16T11:01:25;98208.94;;;31.70;42.80
31239;BME280;17871;31.584;74.450;2023-03-16T11:03:57;98218.31;;;31.74;44.28
31239;BME280;17871;31.584;74.450;2023-03-16T11:06:29;98216.94;;;31.25;46.10
31239;BME280;17871;31.584;74.450;2023-03-16T11:09:03;98212.94;;;31.42;46.52
31239;BME280;17871;31.584;74.450;2023-03-16T11:11:36;98222.09;;;31.16;47.36
31239;BME280;17871;31.584;74.450;2023-03-16T11:14:13;98217.53;;;31.40;46.99
31239;BME280;17871;31.584;74.450;2023-03-16T11:16:49;98226.44;;;31.28;47.56
31239;BME280;17871;31.584;74.450;2023-03-16T11:28:04;98236.28;;;31.04;47.04
31239;BME280;17871;31.584;74.450;2023-03-16T11:33:26;98238.22;;;31.02;46.82
31239;BME280;17871;31.584;74.450;2023-03-16T11:36:39;98228.38;;;31.04;47.31
31239;BME280;17871;31.584;74.450;2023-03-16T11:39:38;98228.72;;;31.10;46.64
31239;BME280;17871;31.584;74.450;2023-03-16T11:46:07;98238.66;;;30.96;45.07
31239;BME280;17871;31.584;74.450;2023-03-16T11:54:28;98246.53;;;30.73;44.70
31239;BME280;17871;31.584;74.450;2023-03-16T11:56:52;98239.94;;;30.57;44.71
31239;BME280;17871;31.584;74.450;2023-03-16T12:02:53;98251.47;;;30.67;44.41
31239;BME280;17871;31.584;74.450;2023-03-16T12:16:25;98270.47;;;29.90;46.84
31239;BME280;17871;31.584;74.450;2023-03-16T12:19:13;98264.22;;;29.67;47.93
31239;BME280;17871;31.584;74.450;2023-03-16T12:21:47;98262.09;;;29.72;48.14
31239;BME280;17871;31.584;74.450;2023-03-16T12:24:28;98266.78;;;29.56;48.51
31239;BME280;17871;31.584;74.450;2023-03-16T12:27:00;98262.28;;;29.45;48.44
31239;BME280;17871;31.584;74.450;2023-03-16T12:29:49;98270.31;;;29.67;47.89
31239;BME280;17871;31.584;74.450;2023-03-16T12:35:35;98286.72;;;29.22;49.13
31239;BME280;17871;31.584;74.450;2023-03-16T12:38:17;98301.72;;;28.44;44.84
31239;BME280;17871;31.584;74.450;2023-03-16T12:49:23;98313.53;;;27.98;43.70
31239;BME280;17871;31.584;74.450;2023-03-16T12:52:02;98320.53;;;27.70;44.11
31239;BME280;17871;31.584;74.450;2023-03-16T12:54:32;98323.03;;;27.45;44.02
31239;BME280;17871;31.584;74.450;2023-03-16T12:57:07;98331.25;;;27.53;42.68
31239;BME280;17871;31.584;74.450;2023-03-16T12:59:47;98332.19;;;27.24;42.37
31239;BME280;17871;31.584;74.450;2023-03-16T13:02:28;98335.19;;;27.18;42.39
31239;BME280;17871;31.584;74.450;2023-03-16T13:05:00;98338.94;;;27.28;42.51
31239;BME280;17871;31.584;74.450;2023-03-16T13:07:30;98339.41;;;27.34;42.37
31239;BME280;17871;31.584;74.450;2023-03-16T13:10:08;98342.28;;;27.30;42.63
31239;BME280;17871;31.584;74.450;2023-03-16T13:12:39;98348.41;;;27.02;42.63
31239;BME280;17871;31.584;74.450;2023-03-16T13:18:20;98356.34;;;26.71;42.88
31239;BME280;17871;31.584;74.450;2023-03-16T13:20:58;98355.91;;;26.78;43.11
31239;BME280;17871;31.584;74.450;2023-03-16T13:23:58;98363.09;;;27.05;42.77
31239;BME280;17871;31.584;74.450;2023-03-16T13:26:48;98369.44;;;26.87;42.74
31239;BME280;17871;31.584;74.450;2023-03-16T13:29:28;98363.56;;;26.67;43.27
31239;BME280;17871;31.584;74.450;2023-03-16T13:32:06;98357.44;;;26.53;43.38
31239;BME280;17871;31.584;74.450;2023-03-16T13:34:46;98360.09;;;26.37;43.79
31239;BME280;17871;31.584;74.450;2023-03-16T13:37:19;98352.31;;;26.36;43.91
31239;BME280;17871;31.584;74.450;2023-03-16T13:39:53;98355.72;;;26.22;43.96
31239;BME280;17871;31.584;74.450;2023-03-16T13:42:25;98353.88;;;26.24;44.12
31239;BME280;17871;31.584;74.450;2023-03-16T13:44:56;98365.00;;;26.27;44.13
31239;BME280;17871;31.584;74.450;2023-03-16T13:47:26;98361.91;;;26.21;44.35
31239;BME280;17871;31.584;74.450;2023-03-16T13:49:57;98359.28;;;26.21;44.64
31239;BME280;17871;31.584;74.450;2023-03-16T13:52:31;98366.25;;;26.36;44.24
31239;BME280;17871;31.584;74.450;2023-03-16T13:55:15;98370.41;;;26.40;44.54
31239;BME280;17871;31.584;74.450;2023-03-16T13:57:46;98367.19;;;26.35;44.26
31239;BME280;17871;31.584;74.450;2023-03-16T14:00:20;98358.06;;;26.11;44.39
31239;BME280;17871;31.584;74.450;2023-03-16T14:02:53;98364.59;;;25.88;44.71
31239;BME280;17871;31.584;74.450;2023-03-16T14:05:27;98359.50;;;26.01;44.54
31239;BME280;17871;31.584;74.450;2023-03-16T14:07:58;98359.16;;;25.75;44.38
31239;BME280;17871;31.584;74.450;2023-03-16T14:10:34;98353.25;;;26.03;44.31
31239;BME280;17871;31.584;74.450;2023-03-16T14:13:09;98355.72;;;26.22;44.01
31239;BME280;17871;31.584;74.450;2023-03-16T14:15:50;98350.56;;;26.05;44.40
31239;BME280;17871;31.584;74.450;2023-03-16T14:18:29;98353.44;;;25.85;44.53
31239;BME280;17871;31.584;74.450;2023-03-16T14:21:05;98356.97;;;25.99;44.53
31239;BME280;17871;31.584;74.450;2023-03-16T14:24:00;98359.44;;;25.87;44.61
31239;BME280;17871;31.584;74.450;2023-03-16T14:26:42;98365.09;;;25.95;44.63
31239;BME280;17871;31.584;74.450;2023-03-16T14:29:19;98369.31;;;25.82;44.88
31239;BME280;17871;31.584;74.450;2023-03-16T14:31:49;98363.06;;;25.84;45.15
31239;BME280;17871;31.584;74.450;2023-03-16T14:34:47;98363.97;;;25.67;45.32
31239;BME280;17871;31.584;74.450;2023-03-16T14:37:17;98365.41;;;25.73;45.47
31239;BME280;17871;31.584;74.450;2023-03-16T14:39:59;98369.72;;;25.74;45.40
31239;BME280;17871;31.584;74.450;2023-03-16T14:42:30;98374.28;;;25.55;46.00